sensor_id;sensor_type;location;lat;lon;timestamp;P1;durP1;ratioP1;P2;durP2;ratioP2
6105;SDS011;3083;51.508;7.966;2022-12-18T00:00:45;3.83;;;2.00;;
6105;SDS011;3083;51.508;7.966;2022-12-18T00:03:13;4.77;;;2.37;;
6105;SDS011;3083;51.508;7.966;2022-12-18T00:05:45;8.50;;;2.33;;
6105;SDS011;3083;51.508;7.966;2022-12-18T00:08:13;4.23;;;1.90;;
6105;SDS011;3083;51.508;7.966;2022-12-18T00:10:40;4.13;;;2.10;;
6105;SDS011;3083;51.508;7.966;2022-12-18T00:13:07;3.10;;;1.73;;
6105;SDS011;3083;51.508;7.966;2022-12-18T00:15:36;4.90;;;1.83;;
6105;SDS011;3083;51.508;7.966;2022-12-18T00:18:03;4.70;;;2.03;;
6105;SDS011;3083;51.508;7.966;2022-12-18T00:20:30;4.10;;;2.53;;
6105;SDS011;3083;51.508;7.966;2022-12-18T00:23:01;4.60;;;2.27;;
6105;SDS011;3083;51.508;7.966;2022-12-18T00:25:28;4.00;;;1.80;;
6105;SDS011;3083;51.508;7.966;2022-12-18T00:27:55;4.87;;;2.50;;
6105;SDS011;3083;51.508;7.966;2022-12-18T00:30:22;8.50;;;2.50;;
6105;SDS011;3083;51.508;7.966;2022-12-18T00:32:50;4.27;;;1.70;;
6105;SDS011;3083;51.508;7.966;2022-12-18T00:35:17;3.60;;;1.93;;
6105;SDS011;3083;51.508;7.966;2022-12-18T00:37:44;4.20;;;1.93;;
6105;SDS011;3083;51.508;7.966;2022-12-18T00:40:11;5.90;;;1.80;;
6105;SDS011;3083;51.508;7.966;2022-12-18T00:42:38;17.10;;;2.70;;
6105;SDS011;3083;51.508;7.966;2022-12-18T00:45:23;3.87;;;1.93;;
6105;SDS011;3083;51.508;7.966;2022-12-18T00:47:51;4.00;;;2.80;;
6105;SDS011;3083;51.508;7.966;2022-12-18T00:50:18;3.47;;;1.70;;
6105;SDS011;3083;51.508;7.966;2022-12-18T00:52:46;3.10;;;1.70;;
6105;SDS011;3083;51.508;7.966;2022-12-18T00:55:13;5.13;;;2.13;;
6105;SDS011;3083;51.508;7.966;2022-12-18T00:57:41;5.27;;;1.90;;
6105;SDS011;3083;51.508;7.966;2022-12-18T01:00:09;3.33;;;1.90;;
6105;SDS011;3083;51.508;7.966;2022-12-18T01:02:38;7.90;;;2.20;;
6105;SDS011;3083;51.508;7.966;2022-12-18T01:05:07;6.00;;;2.33;;
6105;SDS011;3083;51.508;7.966;2022-12-18T01:07:35;4.37;;;2.10;;
6105;SDS011;3083;51.508;7.966;2022-12-18T01:10:02;3.90;;;1.80;;
6105;SDS011;3083;51.508;7.966;2022-12-18T01:12:30;3.90;;;1.70;;
6105;SDS011;3083;51.508;7.966;2022-12-18T01:14:57;7.80;;;2.30;;
6105;SDS011;3083;51.508;7.966;2022-12-18T01:17:24;3.93;;;1.80;;
6105;SDS011;3083;51.508;7.966;2022-12-18T01:19:51;3.60;;;2.00;;
6105;SDS011;3083;51.508;7.966;2022-12-18T01:22:19;8.00;;;2.50;;
6105;SDS011;3083;51.508;7.966;2022-12-18T01:24:46;5.00;;;1.93;;
6105;SDS011;3083;51.508;7.966;2022-12-18T01:27:13;2.53;;;1.40;;
6105;SDS011;3083;51.508;7.966;2022-12-18T01:29:40;4.93;;;2.23;;
6105;SDS011;3083;51.508;7.966;2022-12-18T01:32:07;3.13;;;1.53;;
6105;SDS011;3083;51.508;7.966;2022-12-18T01:34:34;2.77;;;1.50;;
6105;SDS011;3083;51.508;7.966;2022-12-18T01:37:02;4.00;;;1.67;;
6105;SDS011;3083;51.508;7.966;2022-12-18T01:39:30;3.37;;;1.50;;
6105;SDS011;3083;51.508;7.966;2022-12-18T01:41:57;5.00;;;2.10;;
6105;SDS011;3083;51.508;7.966;2022-12-18T01:47:22;2.70;;;1.20;;
6105;SDS011;3083;51.508;7.966;2022-12-18T01:49:51;3.43;;;1.70;;
6105;SDS011;3083;51.508;7.966;2022-12-18T01:52:18;3.63;;;1.57;;
6105;SDS011;3083;51.508;7.966;2022-12-18T01:54:47;2.80;;;1.67;;
6105;SDS011;3083;51.508;7.966;2022-12-18T01:57:16;2.60;;;1.30;;
6105;SDS011;3083;51.508;7.966;2022-12-18T01:59:43;3.60;;;1.87;;
6105;SDS011;3083;51.508;7.966;2022-12-18T02:02:13;7.20;;;1.93;;
6105;SDS011;3083;51.508;7.966;2022-12-18T02:04:40;5.90;;;2.23;;
6105;SDS011;3083;51.508;7.966;2022-12-18T02:07:10;5.03;;;2.40;;
6105;SDS011;3083;51.508;7.966;2022-12-18T02:09:44;6.10;;;1.70;;
6105;SDS011;3083;51.508;7.966;2022-12-18T02:12:17;6.13;;;2.47;;
6105;SDS011;3083;51.508;7.966;2022-12-18T02:14:49;3.10;;;1.70;;
6105;SDS011;3083;51.508;7.966;2022-12-18T02:17:22;5.80;;;2.40;;
6105;SDS011;3083;51.508;7.966;2022-12-18T02:19:55;4.20;;;2.00;;
6105;SDS011;3083;51.508;7.966;2022-12-18T02:22:33;6.40;;;2.40;;
6105;SDS011;3083;51.508;7.966;2022-12-18T02:25:15;3.53;;;1.90;;
6105;SDS011;3083;51.508;7.966;2022-12-18T02:27:52;7.53;;;2.20;;
6105;SDS011;3083;51.508;7.966;2022-12-18T02:30:20;5.40;;;2.37;;
6105;SDS011;3083;51.508;7.966;2022-12-18T02:32:48;6.00;;;2.07;;
6105;SDS011;3083;51.508;7.966;2022-12-18T02:35:20;4.80;;;2.17;;
6105;SDS011;3083;51.508;7.966;2022-12-18T02:37:49;5.47;;;2.10;;
6105;SDS011;3083;51.508;7.966;2022-12-18T02:40:17;4.47;;;2.03;;
6105;SDS011;3083;51.508;7.966;2022-12-18T02:42:45;3.40;;;1.60;;
6105;SDS011;3083;51.508;7.966;2022-12-18T02:45:14;3.93;;;2.00;;
6105;SDS011;3083;51.508;7.966;2022-12-18T02:47:42;8.70;;;2.07;;
6105;SDS011;3083;51.508;7.966;2022-12-18T02:50:12;4.20;;;1.80;;
6105;SDS011;3083;51.508;7.966;2022-12-18T02:52:47;4.33;;;2.10;;
6105;SDS011;3083;51.508;7.966;2022-12-18T02:55:29;4.40;;;1.87;;
6105;SDS011;3083;51.508;7.966;2022-12-18T02:58:07;4.67;;;2.10;;
6105;SDS011;3083;51.508;7.966;2022-12-18T03:00:42;13.87;;;2.60;;
6105;SDS011;3083;51.508;7.966;2022-12-18T03:03:16;4.13;;;1.80;;
6105;SDS011;3083;51.508;7.966;2022-12-18T03:05:50;7.47;;;2.57;;
6105;SDS011;3083;51.508;7.966;2022-12-18T03:08:20;5.43;;;2.10;;
6105;SDS011;3083;51.508;7.966;2022-12-18T03:10:50;3.70;;;1.70;;
6105;SDS011;3083;51.508;7.966;2022-12-18T03:13:23;3.73;;;1.93;;
6105;SDS011;3083;51.508;7.966;2022-12-18T03:15:55;5.87;;;2.03;;
6105;SDS011;3083;51.508;7.966;2022-12-18T03:18:26;3.27;;;1.47;;
6105;SDS011;3083;51.508;7.966;2022-12-18T03:20:57;4.37;;;1.77;;
6105;SDS011;3083;51.508;7.966;2022-12-18T03:23:29;5.67;;;2.20;;
6105;SDS011;3083;51.508;7.966;2022-12-18T03:26:01;4.97;;;1.93;;
6105;SDS011;3083;51.508;7.966;2022-12-18T03:28:31;13.10;;;2.20;;
6105;SDS011;3083;51.508;7.966;2022-12-18T03:31:05;3.70;;;1.80;;
6105;SDS011;3083;51.508;7.966;2022-12-18T03:33:37;4.10;;;2.00;;
6105;SDS011;3083;51.508;7.966;2022-12-18T03:36:07;5.60;;;1.47;;
6105;SDS011;3083;51.508;7.966;2022-12-18T03:38:34;6.63;;;1.93;;
6105;SDS011;3083;51.508;7.966;2022-12-18T03:41:03;4.73;;;1.70;;
6105;SDS011;3083;51.508;7.966;2022-12-18T03:43:39;5.13;;;2.10;;
6105;SDS011;3083;51.508;7.966;2022-12-18T03:46:15;4.40;;;1.97;;
6105;SDS011;3083;51.508;7.966;2022-12-18T03:48:52;5.50;;;2.10;;
6105;SDS011;3083;51.508;7.966;2022-12-18T03:51:26;2.63;;;1.43;;
6105;SDS011;3083;51.508;7.966;2022-12-18T03:53:57;3.57;;;1.97;;
6105;SDS011;3083;51.508;7.966;2022-12-18T03:56:26;5.93;;;2.23;;
6105;SDS011;3083;51.508;7.966;2022-12-18T03:58:56;3.80;;;1.57;;
6105;SDS011;3083;51.508;7.966;2022-12-18T04:01:28;5.50;;;2.17;;
6105;SDS011;3083;51.508;7.966;2022-12-18T04:03:58;4.40;;;1.93;;
6105;SDS011;3083;51.508;7.966;2022-12-18T04:06:27;4.93;;;1.70;;
6105;SDS011;3083;51.508;7.966;2022-12-18T04:08:56;5.50;;;2.10;;
6105;SDS011;3083;51.508;7.966;2022-12-18T04:11:24;3.17;;;1.67;;
6105;SDS011;3083;51.508;7.966;2022-12-18T04:13:53;4.80;;;2.10;;
6105;SDS011;3083;51.508;7.966;2022-12-18T04:16:22;6.10;;;2.00;;
6105;SDS011;3083;51.508;7.966;2022-12-18T04:18:50;3.70;;;2.00;;
6105;SDS011;3083;51.508;7.966;2022-12-18T04:21:17;4.00;;;1.30;;
6105;SDS011;3083;51.508;7.966;2022-12-18T04:23:45;4.67;;;1.80;;
6105;SDS011;3083;51.508;7.966;2022-12-18T04:26:12;5.43;;;2.60;;
6105;SDS011;3083;51.508;7.966;2022-12-18T04:28:39;3.33;;;1.67;;
6105;SDS011;3083;51.508;7.966;2022-12-18T04:31:06;6.33;;;2.40;;
6105;SDS011;3083;51.508;7.966;2022-12-18T04:33:32;6.77;;;1.90;;
6105;SDS011;3083;51.508;7.966;2022-12-18T04:36:01;6.57;;;2.27;;
6105;SDS011;3083;51.508;7.966;2022-12-18T04:38:28;6.37;;;2.53;;
6105;SDS011;3083;51.508;7.966;2022-12-18T04:40:55;2.97;;;1.37;;
6105;SDS011;3083;51.508;7.966;2022-12-18T04:43:22;3.03;;;1.70;;
6105;SDS011;3083;51.508;7.966;2022-12-18T04:45:48;7.03;;;2.50;;
6105;SDS011;3083;51.508;7.966;2022-12-18T04:48:15;3.40;;;1.63;;
6105;SDS011;3083;51.508;7.966;2022-12-18T04:50:42;5.13;;;1.80;;
6105;SDS011;3083;51.508;7.966;2022-12-18T04:53:10;4.03;;;2.10;;
6105;SDS011;3083;51.508;7.966;2022-12-18T04:55:37;4.07;;;2.00;;
6105;SDS011;3083;51.508;7.966;2022-12-18T04:58:04;7.03;;;2.73;;
6105;SDS011;3083;51.508;7.966;2022-12-18T05:00:31;4.07;;;1.70;;
6105;SDS011;3083;51.508;7.966;2022-12-18T05:02:59;3.90;;;1.57;;
6105;SDS011;3083;51.508;7.966;2022-12-18T05:05:27;3.00;;;1.77;;
6105;SDS011;3083;51.508;7.966;2022-12-18T05:07:54;3.23;;;1.70;;
6105;SDS011;3083;51.508;7.966;2022-12-18T05:10:22;5.87;;;2.90;;
6105;SDS011;3083;51.508;7.966;2022-12-18T05:12:49;4.87;;;2.23;;
6105;SDS011;3083;51.508;7.966;2022-12-18T05:15:26;3.70;;;1.63;;
6105;SDS011;3083;51.508;7.966;2022-12-18T05:17:53;3.57;;;2.00;;
6105;SDS011;3083;51.508;7.966;2022-12-18T05:20:20;8.30;;;2.50;;
6105;SDS011;3083;51.508;7.966;2022-12-18T05:22:47;6.33;;;2.40;;
6105;SDS011;3083;51.508;7.966;2022-12-18T05:25:14;3.20;;;1.20;;
6105;SDS011;3083;51.508;7.966;2022-12-18T05:27:42;5.67;;;2.63;;
6105;SDS011;3083;51.508;7.966;2022-12-18T05:30:10;4.13;;;2.23;;
6105;SDS011;3083;51.508;7.966;2022-12-18T05:32:38;6.97;;;3.00;;
6105;SDS011;3083;51.508;7.966;2022-12-18T05:35:06;11.47;;;2.63;;
6105;SDS011;3083;51.508;7.966;2022-12-18T05:37:34;6.03;;;2.60;;
6105;SDS011;3083;51.508;7.966;2022-12-18T05:40:02;6.27;;;2.33;;
6105;SDS011;3083;51.508;7.966;2022-12-18T05:42:30;6.60;;;2.53;;
6105;SDS011;3083;51.508;7.966;2022-12-18T05:44:58;6.30;;;2.90;;
6105;SDS011;3083;51.508;7.966;2022-12-18T05:47:26;7.50;;;2.70;;
6105;SDS011;3083;51.508;7.966;2022-12-18T05:49:53;4.63;;;1.83;;
6105;SDS011;3083;51.508;7.966;2022-12-18T05:52:20;7.93;;;3.27;;
6105;SDS011;3083;51.508;7.966;2022-12-18T05:54:47;7.20;;;2.77;;
6105;SDS011;3083;51.508;7.966;2022-12-18T05:57:14;5.77;;;2.50;;
6105;SDS011;3083;51.508;7.966;2022-12-18T05:59:41;5.20;;;2.47;;
6105;SDS011;3083;51.508;7.966;2022-12-18T06:02:09;7.40;;;2.40;;
6105;SDS011;3083;51.508;7.966;2022-12-18T06:04:36;6.47;;;3.00;;
6105;SDS011;3083;51.508;7.966;2022-12-18T06:07:04;5.50;;;2.80;;
6105;SDS011;3083;51.508;7.966;2022-12-18T06:09:31;7.73;;;3.87;;
6105;SDS011;3083;51.508;7.966;2022-12-18T06:11:58;6.57;;;2.47;;
6105;SDS011;3083;51.508;7.966;2022-12-18T06:14:25;5.33;;;2.30;;
6105;SDS011;3083;51.508;7.966;2022-12-18T06:16:52;5.27;;;2.47;;
6105;SDS011;3083;51.508;7.966;2022-12-18T06:19:20;6.33;;;2.00;;
6105;SDS011;3083;51.508;7.966;2022-12-18T06:21:47;5.77;;;2.67;;
6105;SDS011;3083;51.508;7.966;2022-12-18T06:24:14;5.20;;;2.33;;
6105;SDS011;3083;51.508;7.966;2022-12-18T06:26:41;7.53;;;2.90;;
6105;SDS011;3083;51.508;7.966;2022-12-18T06:29:08;8.80;;;3.83;;
6105;SDS011;3083;51.508;7.966;2022-12-18T06:31:35;5.20;;;2.50;;
6105;SDS011;3083;51.508;7.966;2022-12-18T06:34:02;7.40;;;2.57;;
6105;SDS011;3083;51.508;7.966;2022-12-18T06:36:31;7.20;;;3.10;;
6105;SDS011;3083;51.508;7.966;2022-12-18T06:38:58;12.27;;;3.53;;
6105;SDS011;3083;51.508;7.966;2022-12-18T06:41:25;6.70;;;2.63;;
6105;SDS011;3083;51.508;7.966;2022-12-18T06:43:52;5.57;;;2.20;;
6105;SDS011;3083;51.508;7.966;2022-12-18T06:46:19;7.40;;;2.77;;
6105;SDS011;3083;51.508;7.966;2022-12-18T06:48:47;8.37;;;2.73;;
6105;SDS011;3083;51.508;7.966;2022-12-18T06:51:18;6.77;;;2.37;;
6105;SDS011;3083;51.508;7.966;2022-12-18T06:53:47;7.83;;;2.70;;
6105;SDS011;3083;51.508;7.966;2022-12-18T06:56:14;5.77;;;2.70;;
6105;SDS011;3083;51.508;7.966;2022-12-18T06:58:41;6.20;;;2.97;;
6105;SDS011;3083;51.508;7.966;2022-12-18T07:01:09;6.37;;;2.53;;
6105;SDS011;3083;51.508;7.966;2022-12-18T07:03:37;6.50;;;2.50;;
6105;SDS011;3083;51.508;7.966;2022-12-18T07:06:04;6.40;;;2.90;;
6105;SDS011;3083;51.508;7.966;2022-12-18T07:08:32;6.90;;;2.93;;
6105;SDS011;3083;51.508;7.966;2022-12-18T07:11:03;6.23;;;2.30;;
6105;SDS011;3083;51.508;7.966;2022-12-18T07:13:30;4.83;;;2.07;;
6105;SDS011;3083;51.508;7.966;2022-12-18T07:16:02;5.60;;;2.53;;
6105;SDS011;3083;51.508;7.966;2022-12-18T07:18:33;7.23;;;2.60;;
6105;SDS011;3083;51.508;7.966;2022-12-18T07:21:02;11.90;;;2.13;;
6105;SDS011;3083;51.508;7.966;2022-12-18T07:23:31;4.50;;;1.80;;
6105;SDS011;3083;51.508;7.966;2022-12-18T07:26:01;4.63;;;2.27;;
6105;SDS011;3083;51.508;7.966;2022-12-18T07:28:29;5.23;;;2.67;;
6105;SDS011;3083;51.508;7.966;2022-12-18T07:30:56;8.40;;;3.20;;
6105;SDS011;3083;51.508;7.966;2022-12-18T07:33:23;5.37;;;1.97;;
6105;SDS011;3083;51.508;7.966;2022-12-18T07:35:50;4.63;;;2.30;;
6105;SDS011;3083;51.508;7.966;2022-12-18T07:38:17;8.23;;;2.77;;
6105;SDS011;3083;51.508;7.966;2022-12-18T07:40:44;6.57;;;2.40;;
6105;SDS011;3083;51.508;7.966;2022-12-18T07:43:12;7.40;;;2.50;;
6105;SDS011;3083;51.508;7.966;2022-12-18T07:45:39;8.60;;;3.10;;
6105;SDS011;3083;51.508;7.966;2022-12-18T07:48:06;5.73;;;2.07;;
6105;SDS011;3083;51.508;7.966;2022-12-18T07:50:33;6.57;;;2.63;;
6105;SDS011;3083;51.508;7.966;2022-12-18T07:53:00;8.40;;;2.90;;
6105;SDS011;3083;51.508;7.966;2022-12-18T07:55:28;7.03;;;2.40;;
6105;SDS011;3083;51.508;7.966;2022-12-18T07:57:55;8.43;;;2.90;;
6105;SDS011;3083;51.508;7.966;2022-12-18T08:00:23;4.47;;;2.20;;
6105;SDS011;3083;51.508;7.966;2022-12-18T08:02:50;4.90;;;2.30;;
6105;SDS011;3083;51.508;7.966;2022-12-18T08:05:17;3.27;;;1.70;;
6105;SDS011;3083;51.508;7.966;2022-12-18T08:07:45;5.40;;;2.10;;
6105;SDS011;3083;51.508;7.966;2022-12-18T08:10:12;8.27;;;2.97;;
6105;SDS011;3083;51.508;7.966;2022-12-18T08:12:39;5.70;;;2.00;;
6105;SDS011;3083;51.508;7.966;2022-12-18T08:15:07;7.07;;;2.77;;
6105;SDS011;3083;51.508;7.966;2022-12-18T08:17:36;9.50;;;3.03;;
6105;SDS011;3083;51.508;7.966;2022-12-18T08:20:03;7.13;;;2.73;;
6105;SDS011;3083;51.508;7.966;2022-12-18T08:22:30;7.57;;;2.70;;
6105;SDS011;3083;51.508;7.966;2022-12-18T08:24:59;7.10;;;2.50;;
6105;SDS011;3083;51.508;7.966;2022-12-18T08:27:26;7.70;;;2.33;;
6105;SDS011;3083;51.508;7.966;2022-12-18T08:29:53;6.90;;;2.80;;
6105;SDS011;3083;51.508;7.966;2022-12-18T08:32:20;5.50;;;2.27;;
6105;SDS011;3083;51.508;7.966;2022-12-18T08:34:48;5.70;;;2.07;;
6105;SDS011;3083;51.508;7.966;2022-12-18T08:37:15;7.80;;;2.63;;
6105;SDS011;3083;51.508;7.966;2022-12-18T08:39:42;5.73;;;3.37;;
6105;SDS011;3083;51.508;7.966;2022-12-18T08:42:09;8.93;;;3.20;;
6105;SDS011;3083;51.508;7.966;2022-12-18T08:44:53;6.63;;;3.30;;
6105;SDS011;3083;51.508;7.966;2022-12-18T08:47:20;8.03;;;3.30;;
6105;SDS011;3083;51.508;7.966;2022-12-18T08:49:49;10.33;;;3.47;;
6105;SDS011;3083;51.508;7.966;2022-12-18T08:52:16;6.70;;;3.23;;
6105;SDS011;3083;51.508;7.966;2022-12-18T08:54:43;5.70;;;2.57;;
6105;SDS011;3083;51.508;7.966;2022-12-18T08:57:10;6.50;;;2.97;;
6105;SDS011;3083;51.508;7.966;2022-12-18T08:59:36;7.10;;;3.00;;
6105;SDS011;3083;51.508;7.966;2022-12-18T09:02:03;5.50;;;2.73;;
6105;SDS011;3083;51.508;7.966;2022-12-18T09:04:30;6.60;;;2.23;;
6105;SDS011;3083;51.508;7.966;2022-12-18T09:06:58;5.63;;;2.80;;
6105;SDS011;3083;51.508;7.966;2022-12-18T09:09:25;6.33;;;2.30;;
6105;SDS011;3083;51.508;7.966;2022-12-18T09:11:52;9.40;;;2.97;;
6105;SDS011;3083;51.508;7.966;2022-12-18T09:14:19;4.40;;;2.20;;
6105;SDS011;3083;51.508;7.966;2022-12-18T09:16:46;7.80;;;2.67;;
6105;SDS011;3083;51.508;7.966;2022-12-18T09:19:13;8.53;;;2.77;;
6105;SDS011;3083;51.508;7.966;2022-12-18T09:21:40;9.13;;;3.20;;
6105;SDS011;3083;51.508;7.966;2022-12-18T09:24:08;6.23;;;2.50;;
6105;SDS011;3083;51.508;7.966;2022-12-18T09:26:38;6.07;;;2.70;;
6105;SDS011;3083;51.508;7.966;2022-12-18T09:29:05;9.03;;;2.57;;
6105;SDS011;3083;51.508;7.966;2022-12-18T09:31:34;6.10;;;2.60;;
6105;SDS011;3083;51.508;7.966;2022-12-18T09:34:01;7.60;;;2.97;;
6105;SDS011;3083;51.508;7.966;2022-12-18T09:36:32;10.03;;;2.70;;
6105;SDS011;3083;51.508;7.966;2022-12-18T09:38:59;7.60;;;2.70;;
6105;SDS011;3083;51.508;7.966;2022-12-18T09:41:39;6.13;;;3.20;;
6105;SDS011;3083;51.508;7.966;2022-12-18T09:44:17;8.03;;;2.87;;
6105;SDS011;3083;51.508;7.966;2022-12-18T09:46:49;6.00;;;2.63;;
6105;SDS011;3083;51.508;7.966;2022-12-18T09:49:22;7.33;;;2.80;;
6105;SDS011;3083;51.508;7.966;2022-12-18T09:51:52;6.80;;;2.70;;
6105;SDS011;3083;51.508;7.966;2022-12-18T09:54:24;6.73;;;2.83;;
6105;SDS011;3083;51.508;7.966;2022-12-18T09:56:57;6.73;;;2.90;;
6105;SDS011;3083;51.508;7.966;2022-12-18T09:59:25;5.97;;;2.13;;
6105;SDS011;3083;51.508;7.966;2022-12-18T10:01:56;7.97;;;2.87;;
6105;SDS011;3083;51.508;7.966;2022-12-18T10:04:23;5.47;;;2.67;;
6105;SDS011;3083;51.508;7.966;2022-12-18T10:06:52;5.20;;;2.13;;
6105;SDS011;3083;51.508;7.966;2022-12-18T10:09:28;4.93;;;2.07;;
6105;SDS011;3083;51.508;7.966;2022-12-18T10:12:04;7.43;;;3.17;;
6105;SDS011;3083;51.508;7.966;2022-12-18T10:14:36;6.30;;;3.03;;
6105;SDS011;3083;51.508;7.966;2022-12-18T10:17:13;3.20;;;1.53;;
6105;SDS011;3083;51.508;7.966;2022-12-18T10:19:49;5.50;;;2.30;;
6105;SDS011;3083;51.508;7.966;2022-12-18T10:22:33;6.00;;;2.33;;
6105;SDS011;3083;51.508;7.966;2022-12-18T10:25:15;8.57;;;3.23;;
6105;SDS011;3083;51.508;7.966;2022-12-18T10:27:49;6.00;;;2.57;;
6105;SDS011;3083;51.508;7.966;2022-12-18T10:30:20;5.20;;;2.23;;
6105;SDS011;3083;51.508;7.966;2022-12-18T10:32:48;5.70;;;2.30;;
6105;SDS011;3083;51.508;7.966;2022-12-18T10:35:16;5.13;;;2.80;;
6105;SDS011;3083;51.508;7.966;2022-12-18T10:38:07;7.27;;;2.57;;
6105;SDS011;3083;51.508;7.966;2022-12-18T10:40:48;7.37;;;3.00;;
6105;SDS011;3083;51.508;7.966;2022-12-18T10:43:21;4.13;;;1.83;;
6105;SDS011;3083;51.508;7.966;2022-12-18T10:48:53;5.97;;;2.50;;
6105;SDS011;3083;51.508;7.966;2022-12-18T10:51:23;5.77;;;2.03;;
6105;SDS011;3083;51.508;7.966;2022-12-18T10:53:52;5.40;;;2.00;;
6105;SDS011;3083;51.508;7.966;2022-12-18T10:56:22;5.27;;;2.10;;
6105;SDS011;3083;51.508;7.966;2022-12-18T10:58:57;6.10;;;1.77;;
6105;SDS011;3083;51.508;7.966;2022-12-18T11:01:27;3.63;;;1.57;;
6105;SDS011;3083;51.508;7.966;2022-12-18T11:04:01;4.17;;;1.97;;
6105;SDS011;3083;51.508;7.966;2022-12-18T11:06:34;3.73;;;1.90;;
6105;SDS011;3083;51.508;7.966;2022-12-18T11:09:21;5.73;;;1.87;;
6105;SDS011;3083;51.508;7.966;2022-12-18T11:11:50;6.10;;;2.40;;
6105;SDS011;3083;51.508;7.966;2022-12-18T11:14:20;5.80;;;2.33;;
6105;SDS011;3083;51.508;7.966;2022-12-18T11:16:49;3.70;;;1.70;;
6105;SDS011;3083;51.508;7.966;2022-12-18T11:19:23;4.93;;;2.50;;
6105;SDS011;3083;51.508;7.966;2022-12-18T11:21:56;5.60;;;2.00;;
6105;SDS011;3083;51.508;7.966;2022-12-18T11:24:25;4.30;;;1.93;;
6105;SDS011;3083;51.508;7.966;2022-12-18T11:26:56;4.20;;;1.70;;
6105;SDS011;3083;51.508;7.966;2022-12-18T11:29:34;4.13;;;1.90;;
6105;SDS011;3083;51.508;7.966;2022-12-18T11:35:08;4.40;;;2.20;;
6105;SDS011;3083;51.508;7.966;2022-12-18T11:37:41;4.70;;;1.80;;
6105;SDS011;3083;51.508;7.966;2022-12-18T11:40:13;5.53;;;1.90;;
6105;SDS011;3083;51.508;7.966;2022-12-18T11:42:45;3.00;;;1.50;;
6105;SDS011;3083;51.508;7.966;2022-12-18T11:45:28;3.53;;;1.60;;
6105;SDS011;3083;51.508;7.966;2022-12-18T11:47:58;3.90;;;1.63;;
6105;SDS011;3083;51.508;7.966;2022-12-18T11:50:32;4.67;;;1.73;;
6105;SDS011;3083;51.508;7.966;2022-12-18T11:53:09;3.73;;;1.57;;
6105;SDS011;3083;51.508;7.966;2022-12-18T11:55:40;5.47;;;1.60;;
6105;SDS011;3083;51.508;7.966;2022-12-18T11:58:15;8.43;;;2.03;;
6105;SDS011;3083;51.508;7.966;2022-12-18T12:00:52;5.70;;;1.90;;
6105;SDS011;3083;51.508;7.966;2022-12-18T12:03:39;3.70;;;1.80;;
6105;SDS011;3083;51.508;7.966;2022-12-18T12:06:22;3.57;;;1.63;;
6105;SDS011;3083;51.508;7.966;2022-12-18T12:08:59;4.73;;;2.00;;
6105;SDS011;3083;51.508;7.966;2022-12-18T12:11:40;4.27;;;2.00;;
6105;SDS011;3083;51.508;7.966;2022-12-18T12:14:15;5.80;;;2.43;;
6105;SDS011;3083;51.508;7.966;2022-12-18T12:16:53;5.00;;;2.10;;
6105;SDS011;3083;51.508;7.966;2022-12-18T12:19:29;3.23;;;1.57;;
6105;SDS011;3083;51.508;7.966;2022-12-18T12:22:05;3.73;;;1.77;;
6105;SDS011;3083;51.508;7.966;2022-12-18T12:24:44;5.80;;;2.13;;
6105;SDS011;3083;51.508;7.966;2022-12-18T12:27:28;5.57;;;2.50;;
6105;SDS011;3083;51.508;7.966;2022-12-18T12:30:04;4.10;;;1.80;;
6105;SDS011;3083;51.508;7.966;2022-12-18T12:32:37;4.87;;;2.10;;
6105;SDS011;3083;51.508;7.966;2022-12-18T12:35:15;6.20;;;2.50;;
6105;SDS011;3083;51.508;7.966;2022-12-18T12:38:06;6.63;;;2.20;;
6105;SDS011;3083;51.508;7.966;2022-12-18T12:40:37;7.70;;;2.90;;
6105;SDS011;3083;51.508;7.966;2022-12-18T12:43:12;6.83;;;2.27;;
6105;SDS011;3083;51.508;7.966;2022-12-18T12:45:53;9.53;;;3.20;;
6105;SDS011;3083;51.508;7.966;2022-12-18T12:48:34;8.63;;;2.50;;
6105;SDS011;3083;51.508;7.966;2022-12-18T12:51:10;5.77;;;2.93;;
6105;SDS011;3083;51.508;7.966;2022-12-18T12:53:41;7.10;;;2.80;;
6105;SDS011;3083;51.508;7.966;2022-12-18T12:56:10;4.87;;;2.10;;
6105;SDS011;3083;51.508;7.966;2022-12-18T12:58:41;8.67;;;2.47;;
6105;SDS011;3083;51.508;7.966;2022-12-18T13:01:17;4.93;;;2.43;;
6105;SDS011;3083;51.508;7.966;2022-12-18T13:03:57;5.17;;;2.40;;
6105;SDS011;3083;51.508;7.966;2022-12-18T13:06:37;6.90;;;3.10;;
6105;SDS011;3083;51.508;7.966;2022-12-18T13:09:09;7.10;;;3.17;;
6105;SDS011;3083;51.508;7.966;2022-12-18T13:11:37;5.50;;;2.43;;
6105;SDS011;3083;51.508;7.966;2022-12-18T13:14:24;6.53;;;2.73;;
6105;SDS011;3083;51.508;7.966;2022-12-18T13:17:13;7.53;;;3.33;;
6105;SDS011;3083;51.508;7.966;2022-12-18T13:22:43;6.40;;;2.83;;
6105;SDS011;3083;51.508;7.966;2022-12-18T13:25:31;6.60;;;3.03;;
6105;SDS011;3083;51.508;7.966;2022-12-18T13:28:01;10.23;;;3.90;;
6105;SDS011;3083;51.508;7.966;2022-12-18T13:36:23;8.30;;;3.77;;
6105;SDS011;3083;51.508;7.966;2022-12-18T13:41:53;5.50;;;2.97;;
6105;SDS011;3083;51.508;7.966;2022-12-18T13:44:55;7.40;;;3.30;;
6105;SDS011;3083;51.508;7.966;2022-12-18T13:47:25;8.00;;;3.87;;
6105;SDS011;3083;51.508;7.966;2022-12-18T13:49:54;8.97;;;3.40;;
6105;SDS011;3083;51.508;7.966;2022-12-18T13:52:24;8.83;;;4.23;;
6105;SDS011;3083;51.508;7.966;2022-12-18T13:54:54;15.10;;;6.00;;
6105;SDS011;3083;51.508;7.966;2022-12-18T13:57:26;13.53;;;5.83;;
6105;SDS011;3083;51.508;7.966;2022-12-18T13:59:55;14.70;;;6.07;;
6105;SDS011;3083;51.508;7.966;2022-12-18T14:02:23;12.30;;;5.37;;
6105;SDS011;3083;51.508;7.966;2022-12-18T14:04:51;16.90;;;5.20;;
6105;SDS011;3083;51.508;7.966;2022-12-18T14:07:20;11.90;;;5.37;;
6105;SDS011;3083;51.508;7.966;2022-12-18T14:09:50;12.70;;;4.07;;
6105;SDS011;3083;51.508;7.966;2022-12-18T14:12:21;11.53;;;5.90;;
6105;SDS011;3083;51.508;7.966;2022-12-18T14:15:10;14.37;;;5.10;;
6105;SDS011;3083;51.508;7.966;2022-12-18T14:17:46;14.93;;;5.60;;
6105;SDS011;3083;51.508;7.966;2022-12-18T14:20:13;14.50;;;4.57;;
6105;SDS011;3083;51.508;7.966;2022-12-18T14:22:43;11.00;;;4.03;;
6105;SDS011;3083;51.508;7.966;2022-12-18T14:25:18;8.27;;;3.77;;
6105;SDS011;3083;51.508;7.966;2022-12-18T14:27:48;11.17;;;4.33;;
6105;SDS011;3083;51.508;7.966;2022-12-18T14:30:27;13.90;;;5.03;;
6105;SDS011;3083;51.508;7.966;2022-12-18T14:32:59;10.60;;;4.50;;
6105;SDS011;3083;51.508;7.966;2022-12-18T14:35:27;9.70;;;4.00;;
6105;SDS011;3083;51.508;7.966;2022-12-18T14:37:59;9.00;;;3.63;;
6105;SDS011;3083;51.508;7.966;2022-12-18T14:40:47;6.50;;;3.50;;
6105;SDS011;3083;51.508;7.966;2022-12-18T14:43:18;8.47;;;3.80;;
6105;SDS011;3083;51.508;7.966;2022-12-18T14:45:45;9.43;;;4.20;;
6105;SDS011;3083;51.508;7.966;2022-12-18T14:48:14;9.00;;;3.10;;
6105;SDS011;3083;51.508;7.966;2022-12-18T14:50:43;9.90;;;3.83;;
6105;SDS011;3083;51.508;7.966;2022-12-18T14:53:18;8.60;;;3.80;;
6105;SDS011;3083;51.508;7.966;2022-12-18T14:55:49;10.50;;;4.70;;
6105;SDS011;3083;51.508;7.966;2022-12-18T14:58:16;15.10;;;4.23;;
6105;SDS011;3083;51.508;7.966;2022-12-18T15:00:44;9.70;;;3.80;;
6105;SDS011;3083;51.508;7.966;2022-12-18T15:03:12;6.87;;;3.67;;
6105;SDS011;3083;51.508;7.966;2022-12-18T15:05:44;9.50;;;3.77;;
6105;SDS011;3083;51.508;7.966;2022-12-18T15:08:25;10.60;;;3.60;;
6105;SDS011;3083;51.508;7.966;2022-12-18T15:10:56;10.73;;;4.00;;
6105;SDS011;3083;51.508;7.966;2022-12-18T15:13:23;7.70;;;3.70;;
6105;SDS011;3083;51.508;7.966;2022-12-18T15:15:51;8.90;;;3.70;;
6105;SDS011;3083;51.508;7.966;2022-12-18T15:18:19;11.70;;;4.20;;
6105;SDS011;3083;51.508;7.966;2022-12-18T15:20:48;11.10;;;4.60;;
6105;SDS011;3083;51.508;7.966;2022-12-18T15:23:17;8.67;;;3.93;;
6105;SDS011;3083;51.508;7.966;2022-12-18T15:25:47;12.63;;;3.93;;
6105;SDS011;3083;51.508;7.966;2022-12-18T15:28:23;7.30;;;4.33;;
6105;SDS011;3083;51.508;7.966;2022-12-18T15:31:03;11.17;;;4.00;;
6105;SDS011;3083;51.508;7.966;2022-12-18T15:33:32;13.43;;;4.70;;
6105;SDS011;3083;51.508;7.966;2022-12-18T15:36:01;10.00;;;4.17;;
6105;SDS011;3083;51.508;7.966;2022-12-18T15:38:29;10.30;;;4.57;;
6105;SDS011;3083;51.508;7.966;2022-12-18T15:40:56;10.23;;;4.47;;
6105;SDS011;3083;51.508;7.966;2022-12-18T15:43:25;10.40;;;4.10;;
6105;SDS011;3083;51.508;7.966;2022-12-18T15:45:58;11.80;;;5.10;;
6105;SDS011;3083;51.508;7.966;2022-12-18T15:48:25;9.57;;;4.73;;
6105;SDS011;3083;51.508;7.966;2022-12-18T15:50:53;9.30;;;4.57;;
6105;SDS011;3083;51.508;7.966;2022-12-18T15:53:23;8.60;;;4.20;;
6105;SDS011;3083;51.508;7.966;2022-12-18T15:55:52;9.23;;;4.70;;